Time;durP1;ratioP1;P1;durP2;ratioP2;P2;SDS_P1;SDS_P2;PMS_P1;PMS_P2;Temp;Humidity;BMP_temperature;BMP_pressure;BME280_temperature;BME280_humidity;BME280_pressure;Samples;Min_cycle;Max_cycle;Signal;HPM_P1;HPM_P2
2020/12/31 00:01:05;;;;;;;6.53;1.67;;;;;;;;;;5019713;28;20037;-62
2020/12/31 00:03:31;;;;;;;3.83;1.40;;;;;;;;;;5017911;28;20057;-64
2020/12/31 00:05:56;;;;;;;4.45;1.73;;;;;;;;;;5019204;28;20513;-62
2020/12/31 00:08:22;;;;;;;5.88;1.75;;;;;;;;;;5017856;28;20994;-63
2020/12/31 00:10:48;;;;;;;6.25;1.70;;;;;;;;;;5018449;28;20046;-62
2020/12/31 00:13:14;;;;;;;5.13;1.90;;;;;;;;;;5018417;28;20124;-63
2020/12/31 00:15:40;;;;;;;8.43;3.65;;;;;;;;;;5017272;28;20049;-63
2020/12/31 00:18:06;;;;;;;15.75;6.85;;;;;;;;;;5018921;28;20088;-63
2020/12/31 00:20:32;;;;;;;18.27;7.65;;;;;;;;;;5015292;28;20045;-63
2020/12/31 00:22:58;;;;;;;11.68;4.80;;;;;;;;;;5018024;28;20038;-62
2020/12/31 00:25:24;;;;;;;11.63;4.57;;;;;;;;;;5015734;28;20053;-63
2020/12/31 00:27:50;;;;;;;11.00;4.70;;;;;;;;;;5018977;28;20042;-62
2020/12/31 00:30:17;;;;;;;7.30;2.85;;;;;;;;;;5017237;28;20040;-63
2020/12/31 00:32:44;;;;;;;10.95;3.00;;;;;;;;;;5018636;28;20046;-63
2020/12/31 00:35:10;;;;;;;7.70;2.95;;;;;;;;;;5018541;28;20049;-62
2020/12/31 00:37:36;;;;;;;8.85;3.15;;;;;;;;;;5017932;28;20041;-63
2020/12/31 00:40:04;;;;;;;9.90;3.75;;;;;;;;;;5016520;28;20526;-63
2020/12/31 00:42:30;;;;;;;6.03;2.38;;;;;;;;;;5020290;28;20041;-62
2020/12/31 00:44:56;;;;;;;10.32;2.60;;;;;;;;;;5021222;28;20113;-62
2020/12/31 00:47:21;;;;;;;10.05;3.70;;;;;;;;;;5020938;28;20143;-62
2020/12/31 00:49:47;;;;;;;8.23;3.00;;;;;;;;;;5022157;28;20055;-61
2020/12/31 00:52:13;;;;;;;9.75;2.50;;;;;;;;;;5022819;28;22838;-62
2020/12/31 00:54:39;;;;;;;9.70;3.10;;;;;;;;;;5021559;28;20434;-62
2020/12/31 00:57:05;;;;;;;8.85;2.70;;;;;;;;;;5022321;28;20169;-62
2020/12/31 00:59:31;;;;;;;6.30;2.13;;;;;;;;;;5022469;28;20478;-62
2020/12/31 01:01:57;;;;;;;5.53;1.98;;;;;;;;;;5022209;28;20041;-63
2020/12/31 01:04:23;;;;;;;5.28;1.92;;;;;;;;;;5020672;28;20164;-62
2020/12/31 01:06:49;;;;;;;6.60;2.30;;;;;;;;;;5021298;28;20473;-62
2020/12/31 01:09:14;;;;;;;4.97;1.80;;;;;;;;;;5021931;28;20042;-62
2020/12/31 01:11:41;;;;;;;5.22;1.92;;;;;;;;;;5021368;28;20061;-63
2020/12/31 01:14:07;;;;;;;4.38;1.38;;;;;;;;;;5020039;28;20133;-63
2020/12/31 01:16:33;;;;;;;3.53;1.30;;;;;;;;;;5019971;28;20133;-61
2020/12/31 01:18:59;;;;;;;5.55;1.30;;;;;;;;;;5019827;28;20041;-62
2020/12/31 01:21:24;;;;;;;3.45;1.30;;;;;;;;;;5019285;28;20065;-61
2020/12/31 01:23:50;;;;;;;4.22;1.55;;;;;;;;;;5021830;28;20476;-61
2020/12/31 01:26:28;;;;;;;5.00;1.63;;;;;;;;;;5022643;28;20848;-61
2020/12/31 01:28:54;;;;;;;4.32;1.65;;;;;;;;;;5020414;28;20077;-61
2020/12/31 01:31:20;;;;;;;4.15;1.65;;;;;;;;;;5020649;28;20030;-61
2020/12/31 01:33:46;;;;;;;4.22;1.80;;;;;;;;;;5020319;28;20046;-62
2020/12/31 01:36:12;;;;;;;5.47;1.90;;;;;;;;;;5019905;28;20038;-62
2020/12/31 01:38:38;;;;;;;7.70;2.15;;;;;;;;;;5020356;28;20045;-62
2020/12/31 01:41:03;;;;;;;4.70;2.50;;;;;;;;;;5021096;28;20175;-61
2020/12/31 01:43:29;;;;;;;10.32;4.00;;;;;;;;;;5019632;28;20042;-61
2020/12/31 01:45:55;;;;;;;10.05;4.30;;;;;;;;;;5021563;28;20173;-62
2020/12/31 01:48:21;;;;;;;13.60;5.20;;;;;;;;;;5020184;28;20107;-62
2020/12/31 01:50:47;;;;;;;16.40;7.57;;;;;;;;;;5021875;28;20037;-62
2020/12/31 01:53:14;;;;;;;6.43;2.80;;;;;;;;;;5018669;28;20068;-62
2020/12/31 01:55:41;;;;;;;5.47;2.20;;;;;;;;;;5028554;28;20436;-62
2020/12/31 01:58:06;;;;;;;6.45;2.00;;;;;;;;;;5020774;28;20034;-62
2020/12/31 02:00:32;;;;;;;4.63;1.98;;;;;;;;;;5018244;28;20052;-61
2020/12/31 02:03:01;;;;;;;7.10;1.90;;;;;;;;;;5022785;28;20049;-61
2020/12/31 02:05:27;;;;;;;6.75;1.90;;;;;;;;;;5020614;28;20038;-61
2020/12/31 02:07:53;;;;;;;6.50;2.38;;;;;;;;;;5023263;28;20037;-62
2020/12/31 02:10:19;;;;;;;7.03;2.00;;;;;;;;;;5020174;28;20049;-62
2020/12/31 02:12:45;;;;;;;6.35;2.05;;;;;;;;;;5020762;28;20044;-61
2020/12/31 02:15:17;;;;;;;7.95;2.25;;;;;;;;;;5019804;28;20065;-63
2020/12/31 02:17:44;;;;;;;8.40;3.15;;;;;;;;;;5019730;28;20037;-62
2020/12/31 02:20:11;;;;;;;9.13;2.67;;;;;;;;;;5019278;28;20034;-62
2020/12/31 02:22:37;;;;;;;5.97;2.80;;;;;;;;;;5019818;28;20102;-62
2020/12/31 02:25:03;;;;;;;9.77;2.60;;;;;;;;;;5019677;28;20061;-62
2020/12/31 02:27:29;;;;;;;10.52;2.63;;;;;;;;;;5019434;28;20125;-62
2020/12/31 02:29:55;;;;;;;5.75;2.38;;;;;;;;;;5018747;28;20184;-62
2020/12/31 02:32:20;;;;;;;6.55;2.45;;;;;;;;;;5020064;28;20084;-62
2020/12/31 02:34:46;;;;;;;7.65;2.53;;;;;;;;;;5033978;28;20033;-62
2020/12/31 02:37:12;;;;;;;8.05;2.88;;;;;;;;;;5020319;28;20176;-61
2020/12/31 02:39:38;;;;;;;10.27;3.50;;;;;;;;;;5019551;28;20033;-61
2020/12/31 02:42:04;;;;;;;9.18;3.22;;;;;;;;;;5021104;28;20038;-62
2020/12/31 02:44:30;;;;;;;8.98;2.70;;;;;;;;;;5019550;28;20128;-62
2020/12/31 02:46:56;;;;;;;13.05;3.05;;;;;;;;;;5021931;28;20120;-60
2020/12/31 02:49:22;;;;;;;9.13;3.70;;;;;;;;;;5020138;28;20049;-62
2020/12/31 02:51:47;;;;;;;9.93;3.50;;;;;;;;;;5018144;28;20052;-61
2020/12/31 02:54:13;;;;;;;5.95;2.47;;;;;;;;;;5019721;28;20038;-62
2020/12/31 02:56:39;;;;;;;12.00;3.55;;;;;;;;;;5018977;28;20122;-62
2020/12/31 02:59:05;;;;;;;8.52;3.50;;;;;;;;;;5018509;28;20049;-62
2020/12/31 03:01:31;;;;;;;12.23;2.70;;;;;;;;;;5019151;28;20040;-61
2020/12/31 03:03:57;;;;;;;10.43;3.40;;;;;;;;;;5021188;28;20049;-62
2020/12/31 03:06:23;;;;;;;10.73;3.30;;;;;;;;;;5018581;28;20064;-62
2020/12/31 03:08:49;;;;;;;7.22;2.80;;;;;;;;;;5020270;28;20626;-63
2020/12/31 03:11:14;;;;;;;9.00;3.10;;;;;;;;;;5020063;28;20071;-63
2020/12/31 03:13:41;;;;;;;12.40;3.35;;;;;;;;;;5019394;28;20391;-62
2020/12/31 03:16:06;;;;;;;8.93;3.97;;;;;;;;;;5020188;28;20052;-63
2020/12/31 03:18:32;;;;;;;10.55;2.70;;;;;;;;;;5019516;28;20037;-63
2020/12/31 03:20:58;;;;;;;9.82;3.22;;;;;;;;;;5019467;28;20046;-63
2020/12/31 03:23:24;;;;;;;10.07;3.20;;;;;;;;;;5021405;28;20046;-63
2020/12/31 03:25:51;;;;;;;8.15;2.15;;;;;;;;;;5021076;28;20049;-62
2020/12/31 03:28:17;;;;;;;8.90;2.47;;;;;;;;;;5019160;28;20125;-61
2020/12/31 03:30:44;;;;;;;7.75;2.83;;;;;;;;;;5020519;28;20052;-62
2020/12/31 03:33:12;;;;;;;7.95;3.00;;;;;;;;;;5020012;28;20069;-63
2020/12/31 03:35:43;;;;;;;8.18;2.95;;;;;;;;;;5019880;28;20042;-64
2020/12/31 03:38:09;;;;;;;9.10;2.72;;;;;;;;;;5019083;28;20042;-63
2020/12/31 03:40:35;;;;;;;8.30;2.60;;;;;;;;;;5018271;28;20148;-63
2020/12/31 03:43:00;;;;;;;5.45;2.58;;;;;;;;;;5031491;28;20159;-63
2020/12/31 03:45:26;;;;;;;11.98;2.33;;;;;;;;;;5037375;28;20041;-63
2020/12/31 03:47:52;;;;;;;8.57;2.25;;;;;;;;;;5039266;28;20229;-63
2020/12/31 03:50:18;;;;;;;9.73;2.90;;;;;;;;;;5039299;28;20107;-63
2020/12/31 03:52:44;;;;;;;7.32;2.78;;;;;;;;;;5039682;28;20156;-63
2020/12/31 03:55:10;;;;;;;9.57;3.10;;;;;;;;;;5037946;28;20036;-63
2020/12/31 03:57:36;;;;;;;12.00;3.30;;;;;;;;;;5036926;28;20148;-63
2020/12/31 04:00:02;;;;;;;14.05;3.78;;;;;;;;;;5038058;28;20057;-62
2020/12/31 04:02:28;;;;;;;13.02;3.63;;;;;;;;;;5036106;28;20044;-61
2020/12/31 04:04:54;;;;;;;10.45;3.20;;;;;;;;;;5038103;28;20045;-62
2020/12/31 04:07:20;;;;;;;11.88;2.72;;;;;;;;;;5037210;28;20033;-63
2020/12/31 04:09:46;;;;;;;9.27;3.35;;;;;;;;;;5038389;28;20045;-63
2020/12/31 04:12:12;;;;;;;12.27;3.40;;;;;;;;;;5038153;28;20037;-64
2020/12/31 04:14:38;;;;;;;12.38;3.58;;;;;;;;;;5036300;28;20045;-62
2020/12/31 04:17:03;;;;;;;15.30;3.88;;;;;;;;;;5037322;28;20041;-62
2020/12/31 04:19:29;;;;;;;14.20;3.70;;;;;;;;;;5022470;28;20056;-62
2020/12/31 04:21:55;;;;;;;9.20;3.65;;;;;;;;;;5022177;28;20061;-62
2020/12/31 04:24:21;;;;;;;12.20;3.78;;;;;;;;;;5021498;28;20430;-61
2020/12/31 04:26:50;;;;;;;12.57;3.83;;;;;;;;;;5022174;28;20041;-62
2020/12/31 04:29:16;;;;;;;19.45;4.32;;;;;;;;;;5023355;28;20046;-61
2020/12/31 04:31:42;;;;;;;10.63;3.80;;;;;;;;;;5020564;28;20049;-61
2020/12/31 04:34:08;;;;;;;12.23;4.50;;;;;;;;;;5021746;28;20049;-61
2020/12/31 04:36:34;;;;;;;14.20;4.65;;;;;;;;;;5019580;28;20066;-62
2020/12/31 04:39:00;;;;;;;9.48;3.85;;;;;;;;;;5022367;28;20136;-62
2020/12/31 04:41:26;;;;;;;9.77;4.20;;;;;;;;;;5021841;28;20098;-62
2020/12/31 04:43:52;;;;;;;12.45;4.43;;;;;;;;;;5021138;28;20042;-62
2020/12/31 04:46:21;;;;;;;14.57;4.32;;;;;;;;;;5020719;28;20049;-62
2020/12/31 04:48:50;;;;;;;14.85;4.20;;;;;;;;;;5023174;28;20052;-61
2020/12/31 04:51:16;;;;;;;12.80;4.50;;;;;;;;;;5020855;28;20026;-61
2020/12/31 04:53:42;;;;;;;14.93;4.38;;;;;;;;;;5022850;28;20037;-61
2020/12/31 04:56:08;;;;;;;12.02;4.72;;;;;;;;;;5021622;28;20034;-62
2020/12/31 04:58:34;;;;;;;14.00;4.60;;;;;;;;;;5021441;28;20033;-63
2020/12/31 05:01:00;;;;;;;12.32;4.57;;;;;;;;;;5022088;28;20052;-62
2020/12/31 05:03:26;;;;;;;14.15;4.80;;;;;;;;;;5021828;28;20048;-63
2020/12/31 05:05:56;;;;;;;11.85;4.15;;;;;;;;;;5020618;28;20045;-62
2020/12/31 05:08:25;;;;;;;13.35;4.40;;;;;;;;;;5020249;28;20022;-63
2020/12/31 05:10:54;;;;;;;10.15;3.80;;;;;;;;;;5022192;28;20041;-62
2020/12/31 05:13:20;;;;;;;11.88;4.15;;;;;;;;;;5017849;28;22044;-63
2020/12/31 05:15:46;;;;;;;16.20;4.45;;;;;;;;;;5020906;28;20033;-62
2020/12/31 05:18:18;;;;;;;16.30;4.80;;;;;;;;;;5021407;28;20068;-63
2020/12/31 05:20:46;;;;;;;11.93;4.45;;;;;;;;;;5029114;28;20038;-63
2020/12/31 05:23:13;;;;;;;10.68;4.07;;;;;;;;;;5021303;28;20084;-63
2020/12/31 05:25:39;;;;;;;13.57;4.30;;;;;;;;;;5019360;28;20596;-63
2020/12/31 05:28:20;;;;;;;13.60;4.50;;;;;;;;;;5021249;28;20038;-63
2020/12/31 05:30:47;;;;;;;13.18;4.15;;;;;;;;;;5020067;28;20038;-63
2020/12/31 05:33:22;;;;;;;10.95;4.13;;;;;;;;;;5021206;28;20046;-63
2020/12/31 05:35:48;;;;;;;13.32;4.10;;;;;;;;;;5019102;28;20038;-63
2020/12/31 05:38:21;;;;;;;16.23;4.57;;;;;;;;;;5018380;28;20036;-63
2020/12/31 05:40:59;;;;;;;14.73;4.18;;;;;;;;;;5020462;28;20050;-63
2020/12/31 05:43:25;;;;;;;13.70;3.78;;;;;;;;;;5011568;28;20053;-62
2020/12/31 05:46:07;;;;;;;11.55;4.65;;;;;;;;;;5034495;28;20057;-62
2020/12/31 05:48:33;;;;;;;16.55;3.50;;;;;;;;;;5021160;28;20034;-62
2020/12/31 05:50:59;;;;;;;11.90;4.18;;;;;;;;;;5020963;28;20041;-63
2020/12/31 05:53:27;;;;;;;9.10;3.47;;;;;;;;;;5021459;28;20458;-62
2020/12/31 05:55:55;;;;;;;12.07;4.20;;;;;;;;;;5020805;28;20049;-61
2020/12/31 05:58:27;;;;;;;14.65;4.65;;;;;;;;;;5019568;28;20171;-62
2020/12/31 06:01:02;;;;;;;13.45;4.20;;;;;;;;;;5019760;28;20049;-62
2020/12/31 06:06:36;;;;;;;11.48;4.22;;;;;;;;;;5018651;28;20056;-62
2020/12/31 06:09:05;;;;;;;13.98;4.45;;;;;;;;;;5020766;28;20102;-62
2020/12/31 06:11:32;;;;;;;10.88;3.80;;;;;;;;;;5019112;28;20037;-63
2020/12/31 06:13:58;;;;;;;11.88;4.28;;;;;;;;;;5020618;28;20121;-62
2020/12/31 06:16:30;;;;;;;10.20;4.00;;;;;;;;;;5017550;28;20034;-63
2020/12/31 06:19:11;;;;;;;16.35;3.83;;;;;;;;;;5020473;28;20033;-62
2020/12/31 06:21:43;;;;;;;12.32;4.05;;;;;;;;;;5017731;28;20052;-63
2020/12/31 06:24:12;;;;;;;9.32;3.50;;;;;;;;;;5018853;28;20065;-62
2020/12/31 06:26:44;;;;;;;9.05;3.97;;;;;;;;;;5018520;28;20053;-62
2020/12/31 06:29:10;;;;;;;9.82;3.65;;;;;;;;;;5018839;28;20068;-62
2020/12/31 06:31:37;;;;;;;12.75;3.85;;;;;;;;;;5017515;28;20038;-62
2020/12/31 06:34:03;;;;;;;14.82;4.30;;;;;;;;;;5017429;28;20034;-63
2020/12/31 06:36:39;;;;;;;10.25;3.88;;;;;;;;;;5017317;28;20037;-62
2020/12/31 06:39:06;;;;;;;12.23;4.65;;;;;;;;;;5018860;28;20041;-63
2020/12/31 06:41:38;;;;;;;12.55;4.00;;;;;;;;;;5016296;28;20050;-63
2020/12/31 06:44:08;;;;;;;13.23;4.18;;;;;;;;;;5016626;28;20052;-63
2020/12/31 06:46:59;;;;;;;10.30;3.95;;;;;;;;;;5016412;28;20046;-63
2020/12/31 06:49:44;;;;;;;9.57;3.75;;;;;;;;;;5015312;28;20041;-63
2020/12/31 06:52:20;;;;;;;11.43;4.05;;;;;;;;;;5019357;28;20060;-63
2020/12/31 06:54:46;;;;;;;11.55;3.85;;;;;;;;;;5024958;28;20053;-62
2020/12/31 06:57:12;;;;;;;8.85;3.33;;;;;;;;;;5018041;28;20042;-63
2020/12/31 06:59:43;;;;;;;11.80;3.60;;;;;;;;;;5018188;28;20046;-61
2020/12/31 07:02:09;;;;;;;8.23;3.10;;;;;;;;;;5020235;28;20128;-62
2020/12/31 07:04:36;;;;;;;7.80;3.40;;;;;;;;;;5024476;28;20088;-63
2020/12/31 07:07:22;;;;;;;7.75;3.65;;;;;;;;;;5020126;28;20821;-62
2020/12/31 07:09:51;;;;;;;8.00;3.45;;;;;;;;;;5020607;28;20049;-63
2020/12/31 07:12:30;;;;;;;5.93;2.80;;;;;;;;;;5018984;28;20084;-62
2020/12/31 07:14:56;;;;;;;10.70;3.08;;;;;;;;;;5019822;28;20430;-63
2020/12/31 07:17:22;;;;;;;7.13;2.65;;;;;;;;;;5019293;28;20052;-63
2020/12/31 07:19:48;;;;;;;9.43;2.85;;;;;;;;;;5019304;28;20042;-63
2020/12/31 07:22:15;;;;;;;8.02;2.67;;;;;;;;;;5018377;28;20064;-63
2020/12/31 07:24:50;;;;;;;5.78;2.25;;;;;;;;;;5016816;28;20107;-63
2020/12/31 07:27:21;;;;;;;6.75;2.47;;;;;;;;;;5018585;28;20042;-63
2020/12/31 07:29:58;;;;;;;6.38;2.45;;;;;;;;;;5016966;28;20121;-63
2020/12/31 07:32:42;;;;;;;13.27;2.28;;;;;;;;;;5018895;28;20041;-63
2020/12/31 07:35:20;;;;;;;6.00;2.45;;;;;;;;;;5016860;28;20033;-63
2020/12/31 07:37:54;;;;;;;7.40;2.83;;;;;;;;;;5018996;28;20048;-63
2020/12/31 07:40:33;;;;;;;8.23;2.88;;;;;;;;;;5017788;28;20049;-63
2020/12/31 07:43:00;;;;;;;9.40;3.05;;;;;;;;;;5020979;28;20052;-63
2020/12/31 07:45:26;;;;;;;6.68;2.60;;;;;;;;;;5019174;28;20581;-63
2020/12/31 07:47:52;;;;;;;7.53;2.70;;;;;;;;;;5016614;28;20560;-64
2020/12/31 07:50:19;;;;;;;7.40;2.80;;;;;;;;;;5018882;28;20042;-63
2020/12/31 07:52:45;;;;;;;8.05;2.75;;;;;;;;;;5019640;28;20045;-63
2020/12/31 07:55:11;;;;;;;8.15;2.53;;;;;;;;;;5022763;28;20053;-63
2020/12/31 07:57:38;;;;;;;7.63;2.53;;;;;;;;;;5023696;28;20037;-63
2020/12/31 08:00:05;;;;;;;5.93;2.40;;;;;;;;;;5024473;28;20037;-63
2020/12/31 08:02:32;;;;;;;8.88;2.40;;;;;;;;;;5023926;28;20640;-63
2020/12/31 08:04:58;;;;;;;7.45;2.70;;;;;;;;;;5020143;28;20050;-63
2020/12/31 08:07:24;;;;;;;8.30;2.83;;;;;;;;;;5020447;28;20045;-63
2020/12/31 08:09:51;;;;;;;5.90;2.28;;;;;;;;;;5023191;28;20054;-63
2020/12/31 08:12:17;;;;;;;6.80;2.17;;;;;;;;;;5036825;28;20529;-63
2020/12/31 08:14:46;;;;;;;4.60;2.17;;;;;;;;;;5019905;28;20033;-63
2020/12/31 08:17:13;;;;;;;7.63;2.15;;;;;;;;;;5022286;28;20042;-63
2020/12/31 08:19:40;;;;;;;6.22;2.40;;;;;;;;;;5023136;28;20045;-63
2020/12/31 08:22:10;;;;;;;5.50;2.25;;;;;;;;;;5020657;28;20045;-63
2020/12/31 08:24:41;;;;;;;8.23;2.38;;;;;;;;;;5021421;28;20049;-63
2020/12/31 08:27:08;;;;;;;8.30;2.22;;;;;;;;;;5023748;28;20060;-63
2020/12/31 08:29:34;;;;;;;6.35;1.80;;;;;;;;;;5022111;28;20030;-63
2020/12/31 08:32:04;;;;;;;5.60;2.20;;;;;;;;;;5022284;28;20049;-63
2020/12/31 08:34:35;;;;;;;4.88;2.25;;;;;;;;;;5022889;28;20034;-62
2020/12/31 08:37:01;;;;;;;5.07;1.98;;;;;;;;;;5023635;28;20119;-63
2020/12/31 08:39:28;;;;;;;4.82;1.90;;;;;;;;;;5022308;28;20045;-63
2020/12/31 08:41:58;;;;;;;4.90;2.20;;;;;;;;;;5023994;28;20037;-63
2020/12/31 08:44:25;;;;;;;7.35;2.10;;;;;;;;;;5021124;28;20050;-63
2020/12/31 08:46:51;;;;;;;6.32;1.90;;;;;;;;;;5023068;28;20037;-63
2020/12/31 08:49:24;;;;;;;4.50;1.80;;;;;;;;;;5022247;28;20271;-64
2020/12/31 08:51:51;;;;;;;6.50;2.20;;;;;;;;;;5030660;28;20041;-64
2020/12/31 08:54:16;;;;;;;4.43;2.03;;;;;;;;;;5022361;28;20046;-64
2020/12/31 08:56:42;;;;;;;5.93;2.00;;;;;;;;;;5021296;28;20073;-64
2020/12/31 08:59:15;;;;;;;4.57;2.15;;;;;;;;;;5022965;28;20050;-64
2020/12/31 09:01:47;;;;;;;4.90;2.13;;;;;;;;;;5021742;28;20069;-64
2020/12/31 09:04:16;;;;;;;5.30;2.03;;;;;;;;;;5021044;28;20038;-64
2020/12/31 09:06:42;;;;;;;4.90;2.17;;;;;;;;;;5021798;28;20054;-64
2020/12/31 09:09:25;;;;;;;5.43;2.10;;;;;;;;;;5022035;28;20278;-64
2020/12/31 09:11:57;;;;;;;5.03;2.08;;;;;;;;;;5022652;28;20042;-63
2020/12/31 09:14:24;;;;;;;6.20;2.00;;;;;;;;;;5021567;28;20038;-62
2020/12/31 09:16:49;;;;;;;4.78;2.13;;;;;;;;;;5013181;28;20142;-62
2020/12/31 09:19:16;;;;;;;5.00;2.05;;;;;;;;;;5020445;28;22070;-62
2020/12/31 09:21:42;;;;;;;6.53;2.10;;;;;;;;;;5021058;28;20107;-62
2020/12/31 09:24:17;;;;;;;5.25;2.28;;;;;;;;;;5020764;28;20128;-63
2020/12/31 09:27:03;;;;;;;5.32;1.95;;;;;;;;;;5018676;28;20053;-62
2020/12/31 09:29:29;;;;;;;5.97;2.40;;;;;;;;;;5020138;28;20041;-61
2020/12/31 09:31:55;;;;;;;6.45;2.10;;;;;;;;;;5020307;28;20065;-62
2020/12/31 09:34:21;;;;;;;5.00;2.10;;;;;;;;;;5018000;28;20223;-61
2020/12/31 09:36:47;;;;;;;5.05;2.00;;;;;;;;;;5025599;28;21176;-61
2020/12/31 09:39:13;;;;;;;5.78;2.10;;;;;;;;;;5024205;28;20061;-61
2020/12/31 09:41:39;;;;;;;5.50;2.00;;;;;;;;;;5017971;28;20041;-63
2020/12/31 09:44:05;;;;;;;5.55;2.17;;;;;;;;;;5018516;28;20088;-63
2020/12/31 09:46:31;;;;;;;5.78;2.40;;;;;;;;;;5020163;28;20105;-63
2020/12/31 09:48:57;;;;;;;6.55;2.28;;;;;;;;;;5020471;28;20072;-62
2020/12/31 09:51:23;;;;;;;5.50;1.80;;;;;;;;;;5018107;28;20086;-62
2020/12/31 09:53:52;;;;;;;5.57;1.92;;;;;;;;;;5018232;28;20115;-63
2020/12/31 09:56:27;;;;;;;4.78;1.45;;;;;;;;;;5018778;28;21075;-62
2020/12/31 09:58:53;;;;;;;3.97;1.55;;;;;;;;;;5019836;28;20042;-62
2020/12/31 10:01:21;;;;;;;4.80;1.27;;;;;;;;;;5020179;28;20037;-62
2020/12/31 10:03:47;;;;;;;5.70;1.50;;;;;;;;;;5018207;28;20041;-63
2020/12/31 10:06:13;;;;;;;4.00;1.52;;;;;;;;;;5019614;28;20061;-63
2020/12/31 10:08:41;;;;;;;3.47;1.38;;;;;;;;;;5018991;28;20045;-62
2020/12/31 10:11:07;;;;;;;3.42;1.08;;;;;;;;;;5019791;28;20045;-62
2020/12/31 10:13:33;;;;;;;2.78;1.10;;;;;;;;;;5018515;28;20038;-63
2020/12/31 10:15:59;;;;;;;3.35;1.00;;;;;;;;;;5027409;28;20042;-63
2020/12/31 10:18:25;;;;;;;4.70;1.23;;;;;;;;;;5018728;28;20042;-63
2020/12/31 10:20:51;;;;;;;3.38;1.30;;;;;;;;;;5020374;28;20048;-62
2020/12/31 10:23:17;;;;;;;3.10;0.90;;;;;;;;;;5020375;28;20222;-63
2020/12/31 10:25:43;;;;;;;2.75;0.80;;;;;;;;;;5027349;28;20046;-63
2020/12/31 10:28:09;;;;;;;3.20;0.90;;;;;;;;;;5020123;28;20133;-62
2020/12/31 10:30:34;;;;;;;3.63;0.93;;;;;;;;;;5021290;28;20068;-63
2020/12/31 10:33:00;;;;;;;3.20;0.90;;;;;;;;;;5020070;28;20041;-62
2020/12/31 10:35:26;;;;;;;2.80;0.70;;;;;;;;;;5017687;28;20061;-63
2020/12/31 10:37:52;;;;;;;2.58;0.80;;;;;;;;;;5018889;28;20042;-63
2020/12/31 10:40:21;;;;;;;2.40;0.70;;;;;;;;;;5018354;28;20038;-63
2020/12/31 10:42:47;;;;;;;8.05;0.60;;;;;;;;;;5020444;28;20058;-64
2020/12/31 10:45:12;;;;;;;1.77;0.60;;;;;;;;;;5019881;28;20050;-63
2020/12/31 10:47:38;;;;;;;1.85;0.50;;;;;;;;;;5021403;28;20402;-63
2020/12/31 10:50:05;;;;;;;1.52;0.50;;;;;;;;;;5019089;28;20046;-63
2020/12/31 10:52:30;;;;;;;2.35;0.80;;;;;;;;;;5020005;28;20034;-62
2020/12/31 10:54:56;;;;;;;1.75;0.50;;;;;;;;;;5025282;28;20037;-63
2020/12/31 10:57:22;;;;;;;2.15;0.55;;;;;;;;;;5020414;28;20120;-63
2020/12/31 10:59:48;;;;;;;2.15;0.68;;;;;;;;;;5019760;28;20053;-63
2020/12/31 11:02:14;;;;;;;1.58;0.45;;;;;;;;;;5020333;28;20071;-63
2020/12/31 11:04:40;;;;;;;2.17;0.60;;;;;;;;;;5018445;28;20056;-63
2020/12/31 11:07:06;;;;;;;1.42;0.50;;;;;;;;;;5018269;28;20057;-62
2020/12/31 11:09:32;;;;;;;1.92;0.60;;;;;;;;;;5017505;28;20137;-63
2020/12/31 11:11:58;;;;;;;2.03;0.60;;;;;;;;;;5019388;28;20053;-61
2020/12/31 11:14:23;;;;;;;1.98;0.60;;;;;;;;;;5018719;28;20038;-63
2020/12/31 11:16:50;;;;;;;1.23;0.40;;;;;;;;;;5019312;28;20181;-63
2020/12/31 11:19:16;;;;;;;2.40;0.70;;;;;;;;;;5019667;28;20084;-64
2020/12/31 11:21:42;;;;;;;2.38;0.70;;;;;;;;;;5017152;28;20033;-63
2020/12/31 11:24:08;;;;;;;2.42;0.60;;;;;;;;;;5017845;28;20042;-62
2020/12/31 11:26:34;;;;;;;2.47;0.70;;;;;;;;;;5017236;28;20167;-63
2020/12/31 11:29:00;;;;;;;2.35;0.65;;;;;;;;;;5017613;28;20057;-62
2020/12/31 11:31:27;;;;;;;2.20;0.50;;;;;;;;;;5016978;28;20505;-63
2020/12/31 11:33:53;;;;;;;2.05;0.60;;;;;;;;;;5018891;28;20133;-63
2020/12/31 11:36:22;;;;;;;1.58;0.50;;;;;;;;;;5019420;28;20030;-64
2020/12/31 11:38:49;;;;;;;1.42;0.60;;;;;;;;;;5021071;28;20424;-64
2020/12/31 11:41:15;;;;;;;2.20;0.80;;;;;;;;;;5019781;28;20101;-63
2020/12/31 11:43:41;;;;;;;2.35;0.68;;;;;;;;;;5019194;28;20062;-64
2020/12/31 11:46:07;;;;;;;1.77;0.55;;;;;;;;;;5019230;28;20050;-62
2020/12/31 11:48:33;;;;;;;10.25;4.35;;;;;;;;;;5020675;28;20060;-63
2020/12/31 11:51:00;;;;;;;3.67;0.80;;;;;;;;;;5017658;28;20052;-62
2020/12/31 11:53:27;;;;;;;2.22;0.68;;;;;;;;;;5019004;28;20064;-62
2020/12/31 11:55:52;;;;;;;2.35;0.80;;;;;;;;;;5020492;28;20934;-61
2020/12/31 11:58:18;;;;;;;1.73;0.60;;;;;;;;;;5017261;28;20096;-61
2020/12/31 12:00:44;;;;;;;1.95;0.60;;;;;;;;;;5019317;28;20501;-61
2020/12/31 12:03:10;;;;;;;5.38;0.70;;;;;;;;;;5018463;28;20072;-61
2020/12/31 12:05:36;;;;;;;1.88;0.57;;;;;;;;;;5019612;28;20087;-61
2020/12/31 12:08:03;;;;;;;2.40;0.60;;;;;;;;;;5020032;28;20152;-61
2020/12/31 12:10:28;;;;;;;2.55;0.80;;;;;;;;;;5017910;28;20041;-61
2020/12/31 12:12:54;;;;;;;2.20;0.60;;;;;;;;;;5022339;28;20133;-62
2020/12/31 12:15:20;;;;;;;2.38;0.68;;;;;;;;;;5027077;28;20050;-61
2020/12/31 12:17:49;;;;;;;4.88;0.73;;;;;;;;;;5018662;28;20065;-60
2020/12/31 12:20:15;;;;;;;2.35;0.70;;;;;;;;;;5018594;28;20061;-60
2020/12/31 12:22:41;;;;;;;2.40;0.80;;;;;;;;;;5027315;28;20041;-61
2020/12/31 12:25:07;;;;;;;2.33;0.68;;;;;;;;;;5017806;28;20617;-61
2020/12/31 12:27:37;;;;;;;2.13;0.65;;;;;;;;;;5017826;28;20042;-61
2020/12/31 12:30:09;;;;;;;2.22;0.80;;;;;;;;;;5019490;28;20042;-61
2020/12/31 12:32:35;;;;;;;2.90;0.85;;;;;;;;;;5018437;28;20048;-61
2020/12/31 12:35:01;;;;;;;2.55;0.80;;;;;;;;;;5018383;28;20029;-61
2020/12/31 12:37:27;;;;;;;2.72;0.80;;;;;;;;;;5018245;28;20042;-62
2020/12/31 12:39:52;;;;;;;2.72;0.68;;;;;;;;;;5022448;28;20069;-60
2020/12/31 12:42:18;;;;;;;2.90;1.00;;;;;;;;;;5021385;28;20114;-62
2020/12/31 12:44:44;;;;;;;2.42;0.82;;;;;;;;;;5021091;28;20080;-60
2020/12/31 12:47:10;;;;;;;2.90;0.70;;;;;;;;;;5022689;28;20048;-61
2020/12/31 12:49:36;;;;;;;2.45;0.70;;;;;;;;;;5020973;28;20476;-60
2020/12/31 12:52:03;;;;;;;5.60;0.90;;;;;;;;;;5022574;28;20085;-63
2020/12/31 12:54:29;;;;;;;2.58;0.80;;;;;;;;;;5021770;28;20041;-63
2020/12/31 12:56:55;;;;;;;3.22;1.05;;;;;;;;;;5021440;28;20042;-63
2020/12/31 12:59:21;;;;;;;3.30;0.75;;;;;;;;;;5022681;28;20655;-63
2020/12/31 13:01:46;;;;;;;2.83;0.90;;;;;;;;;;5023432;28;20407;-61
2020/12/31 13:04:12;;;;;;;2.35;0.73;;;;;;;;;;5022252;28;22027;-61
2020/12/31 13:06:38;;;;;;;3.10;0.90;;;;;;;;;;5020457;28;20053;-60
2020/12/31 13:09:05;;;;;;;3.30;0.93;;;;;;;;;;5021279;28;20099;-60
2020/12/31 13:11:30;;;;;;;4.55;1.10;;;;;;;;;;5022526;28;20037;-61
2020/12/31 13:13:56;;;;;;;3.00;0.90;;;;;;;;;;5021972;28;20045;-61
2020/12/31 13:16:22;;;;;;;3.50;0.93;;;;;;;;;;5019178;28;22759;-62
2020/12/31 13:18:48;;;;;;;2.70;1.00;;;;;;;;;;5022369;28;20646;-62
2020/12/31 13:21:18;;;;;;;5.50;1.20;;;;;;;;;;5020602;28;20052;-61
2020/12/31 13:23:43;;;;;;;2.95;0.90;;;;;;;;;;5020422;28;20049;-61
2020/12/31 13:26:09;;;;;;;2.38;0.80;;;;;;;;;;5020368;28;20055;-61
2020/12/31 13:28:35;;;;;;;3.42;0.95;;;;;;;;;;5022478;28;20101;-62
2020/12/31 13:31:02;;;;;;;2.90;1.00;;;;;;;;;;5021538;28;20045;-60
2020/12/31 13:33:28;;;;;;;3.08;1.00;;;;;;;;;;5021010;28;20190;-62
2020/12/31 13:35:54;;;;;;;3.67;1.05;;;;;;;;;;5022169;28;20042;-62
2020/12/31 13:38:20;;;;;;;2.90;0.98;;;;;;;;;;5013344;28;20030;-63
2020/12/31 13:40:46;;;;;;;4.18;0.80;;;;;;;;;;5020648;28;20048;-60
2020/12/31 13:43:12;;;;;;;3.15;1.00;;;;;;;;;;5021293;28;20048;-61
2020/12/31 13:45:38;;;;;;;2.80;0.90;;;;;;;;;;5019518;28;20046;-61
2020/12/31 13:48:04;;;;;;;2.42;0.65;;;;;;;;;;5020485;28;20121;-60
2020/12/31 13:50:30;;;;;;;1.02;0.50;;;;;;;;;;5019123;28;22644;-61
2020/12/31 13:52:56;;;;;;;1.73;0.60;;;;;;;;;;5017977;28;20068;-61
2020/12/31 13:55:22;;;;;;;3.17;0.70;;;;;;;;;;5019626;28;20038;-60
2020/12/31 13:57:48;;;;;;;2.20;0.50;;;;;;;;;;5021418;28;20030;-60
2020/12/31 14:00:14;;;;;;;2.80;0.80;;;;;;;;;;5021662;28;20097;-60
2020/12/31 14:02:40;;;;;;;2.90;0.93;;;;;;;;;;5019615;28;20046;-61
2020/12/31 14:05:06;;;;;;;2.60;0.80;;;;;;;;;;5020136;28;20046;-60
2020/12/31 14:07:32;;;;;;;3.00;1.20;;;;;;;;;;5034643;28;20533;-61
2020/12/31 14:09:59;;;;;;;3.90;1.10;;;;;;;;;;5020017;28;20037;-62
2020/12/31 14:12:25;;;;;;;3.63;1.10;;;;;;;;;;5020107;28;20045;-62
2020/12/31 14:14:51;;;;;;;2.85;0.75;;;;;;;;;;5019790;28;20050;-62
2020/12/31 14:17:16;;;;;;;2.95;1.00;;;;;;;;;;5020397;28;20042;-63
2020/12/31 14:19:42;;;;;;;3.22;0.82;;;;;;;;;;5019910;28;20042;-62
2020/12/31 14:22:11;;;;;;;3.22;0.90;;;;;;;;;;5019290;28;20486;-62
2020/12/31 14:24:37;;;;;;;5.60;0.80;;;;;;;;;;5018959;28;20050;-62
2020/12/31 14:27:03;;;;;;;2.92;1.00;;;;;;;;;;5019033;28;20787;-62
2020/12/31 14:29:30;;;;;;;3.42;0.95;;;;;;;;;;5019199;28;20078;-62
2020/12/31 14:31:55;;;;;;;4.18;1.10;;;;;;;;;;5020217;28;20034;-62
2020/12/31 14:34:21;;;;;;;3.40;0.75;;;;;;;;;;5018773;28;20514;-63
2020/12/31 14:36:47;;;;;;;3.75;1.00;;;;;;;;;;5021955;28;20518;-61
2020/12/31 14:39:14;;;;;;;3.10;1.02;;;;;;;;;;5019025;28;20803;-62
2020/12/31 14:41:41;;;;;;;3.38;1.00;;;;;;;;;;5017992;28;20060;-63
2020/12/31 14:44:07;;;;;;;3.35;0.90;;;;;;;;;;5018265;28;20037;-62